sensor_id;sensor_type;location;lat;lon;timestamp;P1;durP1;ratioP1;P2;durP2;ratioP2
62535;SDS011;63050;47.514;18.920;2023-04-06T00:00:50;4.70;;;3.10;;
62535;SDS011;63050;47.514;18.920;2023-04-06T00:05:51;5.70;;;3.30;;
62535;SDS011;63050;47.514;18.920;2023-04-06T00:10:52;4.40;;;3.50;;
62535;SDS011;63050;47.514;18.920;2023-04-06T00:15:53;6.20;;;3.10;;
62535;SDS011;63050;47.514;18.920;2023-04-06T00:20:54;6.90;;;3.20;;
62535;SDS011;63050;47.514;18.920;2023-04-06T00:25:56;5.70;;;3.00;;
62535;SDS011;63050;47.514;18.920;2023-04-06T00:30:57;5.90;;;3.00;;
62535;SDS011;63050;47.514;18.920;2023-04-06T00:35:57;7.30;;;3.50;;
62535;SDS011;63050;47.514;18.920;2023-04-06T00:40:58;7.40;;;3.30;;
62535;SDS011;63050;47.514;18.920;2023-04-06T00:45:59;5.10;;;3.40;;
62535;SDS011;63050;47.514;18.920;2023-04-06T00:51:00;5.40;;;3.20;;
62535;SDS011;63050;47.514;18.920;2023-04-06T00:56:01;6.70;;;3.20;;
62535;SDS011;63050;47.514;18.920;2023-04-06T01:01:06;6.70;;;2.90;;
62535;SDS011;63050;47.514;18.920;2023-04-06T01:06:08;5.40;;;3.10;;
62535;SDS011;63050;47.514;18.920;2023-04-06T01:11:11;4.90;;;2.80;;
62535;SDS011;63050;47.514;18.920;2023-04-06T01:16:12;5.60;;;3.00;;
62535;SDS011;63050;47.514;18.920;2023-04-06T01:21:30;4.80;;;2.80;;
62535;SDS011;63050;47.514;18.920;2023-04-06T01:26:54;4.60;;;2.60;;
62535;SDS011;63050;47.514;18.920;2023-04-06T01:31:56;6.50;;;3.50;;
62535;SDS011;63050;47.514;18.920;2023-04-06T01:36:58;5.70;;;2.90;;
62535;SDS011;63050;47.514;18.920;2023-04-06T01:42:02;8.40;;;3.30;;
62535;SDS011;63050;47.514;18.920;2023-04-06T01:47:05;4.50;;;2.80;;
62535;SDS011;63050;47.514;18.920;2023-04-06T01:52:06;4.90;;;3.10;;
62535;SDS011;63050;47.514;18.920;2023-04-06T01:57:12;7.80;;;3.40;;
62535;SDS011;63050;47.514;18.920;2023-04-06T02:02:20;6.40;;;3.20;;
62535;SDS011;63050;47.514;18.920;2023-04-06T02:07:33;5.50;;;3.20;;
62535;SDS011;63050;47.514;18.920;2023-04-06T02:12:34;6.50;;;2.90;;
62535;SDS011;63050;47.514;18.920;2023-04-06T02:17:37;9.70;;;4.10;;
62535;SDS011;63050;47.514;18.920;2023-04-06T02:22:39;4.80;;;3.00;;
62535;SDS011;63050;47.514;18.920;2023-04-06T02:27:40;7.80;;;3.50;;
62535;SDS011;63050;47.514;18.920;2023-04-06T02:32:41;7.40;;;3.20;;
62535;SDS011;63050;47.514;18.920;2023-04-06T02:37:42;9.80;;;4.00;;
62535;SDS011;63050;47.514;18.920;2023-04-06T02:42:43;8.00;;;3.40;;
62535;SDS011;63050;47.514;18.920;2023-04-06T02:47:45;8.20;;;3.80;;
62535;SDS011;63050;47.514;18.920;2023-04-06T02:52:47;6.70;;;3.00;;
62535;SDS011;63050;47.514;18.920;2023-04-06T02:57:48;8.40;;;4.10;;
62535;SDS011;63050;47.514;18.920;2023-04-06T03:02:50;9.80;;;4.10;;
62535;SDS011;63050;47.514;18.920;2023-04-06T03:07:51;7.00;;;3.30;;
62535;SDS011;63050;47.514;18.920;2023-04-06T03:12:58;6.40;;;3.70;;
62535;SDS011;63050;47.514;18.920;2023-04-06T03:18:24;7.80;;;4.70;;
62535;SDS011;63050;47.514;18.920;2023-04-06T03:23:27;5.40;;;3.30;;
62535;SDS011;63050;47.514;18.920;2023-04-06T03:28:31;4.50;;;2.70;;
62535;SDS011;63050;47.514;18.920;2023-04-06T03:33:36;7.40;;;3.50;;
62535;SDS011;63050;47.514;18.920;2023-04-06T03:38:37;8.20;;;3.50;;
62535;SDS011;63050;47.514;18.920;2023-04-06T03:43:42;7.20;;;4.10;;
62535;SDS011;63050;47.514;18.920;2023-04-06T03:48:45;7.50;;;4.50;;
62535;SDS011;63050;47.514;18.920;2023-04-06T03:53:46;6.90;;;3.70;;
62535;SDS011;63050;47.514;18.920;2023-04-06T03:58:47;6.40;;;4.80;;
62535;SDS011;63050;47.514;18.920;2023-04-06T04:03:50;6.90;;;4.20;;
62535;SDS011;63050;47.514;18.920;2023-04-06T04:08:52;6.90;;;4.00;;
62535;SDS011;63050;47.514;18.920;2023-04-06T04:13:53;8.10;;;4.40;;
62535;SDS011;63050;47.514;18.920;2023-04-06T04:18:54;9.80;;;4.80;;
62535;SDS011;63050;47.514;18.920;2023-04-06T04:23:55;6.90;;;4.80;;
62535;SDS011;63050;47.514;18.920;2023-04-06T04:28:57;11.20;;;5.80;;
62535;SDS011;63050;47.514;18.920;2023-04-06T04:33:59;6.40;;;3.70;;
62535;SDS011;63050;47.514;18.920;2023-04-06T04:39:03;8.30;;;5.10;;
62535;SDS011;63050;47.514;18.920;2023-04-06T04:44:08;12.70;;;5.80;;
62535;SDS011;63050;47.514;18.920;2023-04-06T04:49:09;13.20;;;4.70;;
62535;SDS011;63050;47.514;18.920;2023-04-06T04:54:11;9.80;;;4.90;;
62535;SDS011;63050;47.514;18.920;2023-04-06T04:59:14;11.60;;;6.20;;
62535;SDS011;63050;47.514;18.920;2023-04-06T05:04:16;13.30;;;5.50;;
62535;SDS011;63050;47.514;18.920;2023-04-06T05:09:17;18.50;;;7.40;;
62535;SDS011;63050;47.514;18.920;2023-04-06T05:14:18;18.20;;;6.40;;
62535;SDS011;63050;47.514;18.920;2023-04-06T05:19:19;17.10;;;7.40;;
62535;SDS011;63050;47.514;18.920;2023-04-06T05:24:21;9.80;;;6.70;;
62535;SDS011;63050;47.514;18.920;2023-04-06T05:29:22;17.80;;;7.60;;
62535;SDS011;63050;47.514;18.920;2023-04-06T05:34:23;8.40;;;6.30;;
62535;SDS011;63050;47.514;18.920;2023-04-06T05:39:25;13.60;;;6.10;;
62535;SDS011;63050;47.514;18.920;2023-04-06T05:44:28;15.20;;;7.50;;
62535;SDS011;63050;47.514;18.920;2023-04-06T05:49:36;17.80;;;7.40;;
62535;SDS011;63050;47.514;18.920;2023-04-06T05:54:39;12.50;;;7.10;;
62535;SDS011;63050;47.514;18.920;2023-04-06T05:59:41;12.10;;;6.70;;
62535;SDS011;63050;47.514;18.920;2023-04-06T06:04:44;12.80;;;7.30;;
62535;SDS011;63050;47.514;18.920;2023-04-06T06:09:45;14.10;;;8.10;;
62535;SDS011;63050;47.514;18.920;2023-04-06T06:14:56;16.40;;;6.90;;
62535;SDS011;63050;47.514;18.920;2023-04-06T06:19:58;12.70;;;7.20;;
62535;SDS011;63050;47.514;18.920;2023-04-06T06:25:01;9.10;;;4.60;;
62535;SDS011;63050;47.514;18.920;2023-04-06T06:30:03;9.30;;;5.80;;
62535;SDS011;63050;47.514;18.920;2023-04-06T06:35:05;9.90;;;5.30;;
62535;SDS011;63050;47.514;18.920;2023-04-06T06:40:11;7.10;;;4.90;;
62535;SDS011;63050;47.514;18.920;2023-04-06T06:45:14;10.00;;;5.60;;
62535;SDS011;63050;47.514;18.920;2023-04-06T06:50:16;12.90;;;5.90;;
62535;SDS011;63050;47.514;18.920;2023-04-06T06:55:17;11.10;;;6.30;;
62535;SDS011;63050;47.514;18.920;2023-04-06T07:00:19;10.40;;;6.30;;
62535;SDS011;63050;47.514;18.920;2023-04-06T07:05:23;9.60;;;6.70;;
62535;SDS011;63050;47.514;18.920;2023-04-06T07:10:25;10.90;;;6.80;;
62535;SDS011;63050;47.514;18.920;2023-04-06T07:15:26;11.10;;;6.10;;
62535;SDS011;63050;47.514;18.920;2023-04-06T07:20:27;11.10;;;5.80;;
62535;SDS011;63050;47.514;18.920;2023-04-06T07:25:30;11.10;;;6.80;;
62535;SDS011;63050;47.514;18.920;2023-04-06T07:30:31;12.80;;;6.70;;
62535;SDS011;63050;47.514;18.920;2023-04-06T07:35:33;12.10;;;6.90;;
62535;SDS011;63050;47.514;18.920;2023-04-06T07:40:35;18.20;;;7.10;;
62535;SDS011;63050;47.514;18.920;2023-04-06T07:45:37;11.90;;;6.90;;
62535;SDS011;63050;47.514;18.920;2023-04-06T07:50:38;17.40;;;7.30;;
62535;SDS011;63050;47.514;18.920;2023-04-06T07:55:39;13.30;;;7.70;;
62535;SDS011;63050;47.514;18.920;2023-04-06T08:00:40;9.50;;;7.20;;
62535;SDS011;63050;47.514;18.920;2023-04-06T08:05:41;15.30;;;8.50;;
62535;SDS011;63050;47.514;18.920;2023-04-06T08:10:42;16.00;;;8.70;;
62535;SDS011;63050;47.514;18.920;2023-04-06T08:15:43;12.90;;;8.80;;
62535;SDS011;63050;47.514;18.920;2023-04-06T08:20:44;11.40;;;7.80;;
62535;SDS011;63050;47.514;18.920;2023-04-06T08:25:45;17.60;;;8.10;;
62535;SDS011;63050;47.514;18.920;2023-04-06T08:30:46;12.40;;;7.90;;
62535;SDS011;63050;47.514;18.920;2023-04-06T08:35:47;13.50;;;9.00;;
62535;SDS011;63050;47.514;18.920;2023-04-06T08:40:48;10.60;;;7.10;;
62535;SDS011;63050;47.514;18.920;2023-04-06T08:45:51;18.40;;;8.70;;
62535;SDS011;63050;47.514;18.920;2023-04-06T08:50:52;10.80;;;7.50;;
62535;SDS011;63050;47.514;18.920;2023-04-06T08:55:53;10.20;;;7.90;;
62535;SDS011;63050;47.514;18.920;2023-04-06T09:00:54;14.10;;;7.70;;
62535;SDS011;63050;47.514;18.920;2023-04-06T09:05:55;10.90;;;7.10;;
62535;SDS011;63050;47.514;18.920;2023-04-06T09:10:56;9.20;;;7.10;;
62535;SDS011;63050;47.514;18.920;2023-04-06T09:15:58;12.00;;;6.80;;
62535;SDS011;63050;47.514;18.920;2023-04-06T09:21:06;12.90;;;6.10;;
62535;SDS011;63050;47.514;18.920;2023-04-06T09:26:08;10.90;;;6.20;;
62535;SDS011;63050;47.514;18.920;2023-04-06T09:31:11;9.70;;;5.60;;
62535;SDS011;63050;47.514;18.920;2023-04-06T09:36:13;7.60;;;5.70;;
62535;SDS011;63050;47.514;18.920;2023-04-06T09:41:20;14.10;;;5.70;;
62535;SDS011;63050;47.514;18.920;2023-04-06T09:46:27;7.70;;;4.90;;
62535;SDS011;63050;47.514;18.920;2023-04-06T09:51:30;9.80;;;5.80;;
62535;SDS011;63050;47.514;18.920;2023-04-06T09:56:48;8.20;;;5.70;;
62535;SDS011;63050;47.514;18.920;2023-04-06T10:01:52;10.30;;;5.60;;
62535;SDS011;63050;47.514;18.920;2023-04-06T10:06:53;9.10;;;5.70;;
62535;SDS011;63050;47.514;18.920;2023-04-06T10:11:56;8.40;;;5.50;;
62535;SDS011;63050;47.514;18.920;2023-04-06T10:16:58;8.70;;;5.50;;
62535;SDS011;63050;47.514;18.920;2023-04-06T10:21:58;7.80;;;5.90;;
62535;SDS011;63050;47.514;18.920;2023-04-06T10:27:00;8.60;;;6.10;;
62535;SDS011;63050;47.514;18.920;2023-04-06T10:32:02;9.50;;;5.70;;
62535;SDS011;63050;47.514;18.920;2023-04-06T10:37:16;8.60;;;6.20;;
62535;SDS011;63050;47.514;18.920;2023-04-06T10:42:20;8.10;;;6.10;;
62535;SDS011;63050;47.514;18.920;2023-04-06T10:47:24;8.40;;;6.40;;
62535;SDS011;63050;47.514;18.920;2023-04-06T10:52:25;7.90;;;6.50;;
62535;SDS011;63050;47.514;18.920;2023-04-06T10:57:29;9.00;;;6.70;;
62535;SDS011;63050;47.514;18.920;2023-04-06T11:02:32;12.40;;;6.70;;
62535;SDS011;63050;47.514;18.920;2023-04-06T11:07:33;11.10;;;6.60;;
62535;SDS011;63050;47.514;18.920;2023-04-06T11:12:34;7.90;;;6.40;;
62535;SDS011;63050;47.514;18.920;2023-04-06T11:17:36;10.60;;;6.10;;
62535;SDS011;63050;47.514;18.920;2023-04-06T11:22:50;8.80;;;6.70;;
62535;SDS011;63050;47.514;18.920;2023-04-06T11:27:52;10.40;;;6.00;;
62535;SDS011;63050;47.514;18.920;2023-04-06T11:32:59;10.00;;;6.20;;
62535;SDS011;63050;47.514;18.920;2023-04-06T11:38:02;11.50;;;6.40;;
62535;SDS011;63050;47.514;18.920;2023-04-06T11:43:03;8.10;;;5.10;;
62535;SDS011;63050;47.514;18.920;2023-04-06T11:48:04;9.20;;;5.80;;
62535;SDS011;63050;47.514;18.920;2023-04-06T11:53:05;9.20;;;5.50;;
62535;SDS011;63050;47.514;18.920;2023-04-06T11:58:06;6.10;;;4.50;;
62535;SDS011;63050;47.514;18.920;2023-04-06T12:03:07;9.00;;;5.30;;
62535;SDS011;63050;47.514;18.920;2023-04-06T12:08:08;9.60;;;6.00;;
62535;SDS011;63050;47.514;18.920;2023-04-06T12:13:09;7.50;;;5.30;;
62535;SDS011;63050;47.514;18.920;2023-04-06T12:18:10;6.90;;;5.30;;
62535;SDS011;63050;47.514;18.920;2023-04-06T12:23:11;7.60;;;5.80;;
62535;SDS011;63050;47.514;18.920;2023-04-06T12:28:12;11.80;;;5.50;;
62535;SDS011;63050;47.514;18.920;2023-04-06T12:33:13;7.70;;;5.50;;
62535;SDS011;63050;47.514;18.920;2023-04-06T12:38:14;11.70;;;6.10;;
62535;SDS011;63050;47.514;18.920;2023-04-06T12:43:16;8.90;;;6.20;;
62535;SDS011;63050;47.514;18.920;2023-04-06T12:48:17;8.80;;;5.70;;
62535;SDS011;63050;47.514;18.920;2023-04-06T12:53:18;10.40;;;5.80;;
62535;SDS011;63050;47.514;18.920;2023-04-06T12:58:19;8.10;;;5.20;;
62535;SDS011;63050;47.514;18.920;2023-04-06T13:03:20;14.10;;;5.20;;
62535;SDS011;63050;47.514;18.920;2023-04-06T13:08:22;9.20;;;4.90;;
62535;SDS011;63050;47.514;18.920;2023-04-06T13:13:24;12.40;;;4.90;;
62535;SDS011;63050;47.514;18.920;2023-04-06T13:18:26;11.20;;;4.50;;
62535;SDS011;63050;47.514;18.920;2023-04-06T13:23:27;8.90;;;5.30;;
62535;SDS011;63050;47.514;18.920;2023-04-06T13:28:28;7.90;;;4.70;;
62535;SDS011;63050;47.514;18.920;2023-04-06T13:33:29;7.70;;;5.20;;
62535;SDS011;63050;47.514;18.920;2023-04-06T13:38:31;9.60;;;5.20;;
62535;SDS011;63050;47.514;18.920;2023-04-06T13:43:32;9.40;;;5.00;;
62535;SDS011;63050;47.514;18.920;2023-04-06T13:48:33;11.70;;;4.60;;
62535;SDS011;63050;47.514;18.920;2023-04-06T13:53:34;10.20;;;5.50;;
62535;SDS011;63050;47.514;18.920;2023-04-06T13:58:35;9.40;;;4.90;;
62535;SDS011;63050;47.514;18.920;2023-04-06T14:03:36;8.70;;;4.60;;
62535;SDS011;63050;47.514;18.920;2023-04-06T14:08:37;39.10;;;7.30;;
62535;SDS011;63050;47.514;18.920;2023-04-06T14:13:38;6.30;;;4.40;;
62535;SDS011;63050;47.514;18.920;2023-04-06T14:18:39;8.10;;;5.00;;
62535;SDS011;63050;47.514;18.920;2023-04-06T14:23:40;8.20;;;6.10;;
62535;SDS011;63050;47.514;18.920;2023-04-06T14:28:41;6.60;;;4.70;;
62535;SDS011;63050;47.514;18.920;2023-04-06T14:33:42;7.70;;;5.50;;
62535;SDS011;63050;47.514;18.920;2023-04-06T14:38:43;7.50;;;4.80;;
62535;SDS011;63050;47.514;18.920;2023-04-06T14:43:47;8.10;;;4.90;;
62535;SDS011;63050;47.514;18.920;2023-04-06T14:48:47;7.30;;;5.00;;
62535;SDS011;63050;47.514;18.920;2023-04-06T14:53:48;7.80;;;5.30;;
62535;SDS011;63050;47.514;18.920;2023-04-06T14:58:50;7.00;;;4.80;;
62535;SDS011;63050;47.514;18.920;2023-04-06T15:03:51;14.30;;;5.50;;
62535;SDS011;63050;47.514;18.920;2023-04-06T15:08:53;7.10;;;4.80;;
62535;SDS011;63050;47.514;18.920;2023-04-06T15:13:54;6.70;;;4.60;;
62535;SDS011;63050;47.514;18.920;2023-04-06T15:18:55;8.70;;;5.70;;
62535;SDS011;63050;47.514;18.920;2023-04-06T15:23:56;10.20;;;5.20;;
62535;SDS011;63050;47.514;18.920;2023-04-06T15:28:57;8.10;;;4.40;;
62535;SDS011;63050;47.514;18.920;2023-04-06T15:33:57;13.50;;;6.20;;
62535;SDS011;63050;47.514;18.920;2023-04-06T15:38:58;15.70;;;5.70;;
62535;SDS011;63050;47.514;18.920;2023-04-06T15:43:59;7.30;;;5.30;;
62535;SDS011;63050;47.514;18.920;2023-04-06T15:49:00;8.60;;;4.80;;
62535;SDS011;63050;47.514;18.920;2023-04-06T15:54:01;7.30;;;5.10;;
62535;SDS011;63050;47.514;18.920;2023-04-06T15:59:02;7.30;;;4.60;;
62535;SDS011;63050;47.514;18.920;2023-04-06T16:04:05;9.50;;;5.60;;
62535;SDS011;63050;47.514;18.920;2023-04-06T16:09:06;7.90;;;6.00;;
62535;SDS011;63050;47.514;18.920;2023-04-06T16:14:07;8.60;;;5.30;;
62535;SDS011;63050;47.514;18.920;2023-04-06T16:19:08;13.80;;;6.30;;
62535;SDS011;63050;47.514;18.920;2023-04-06T16:24:09;8.10;;;5.50;;
62535;SDS011;63050;47.514;18.920;2023-04-06T16:29:10;10.10;;;7.40;;
62535;SDS011;63050;47.514;18.920;2023-04-06T16:34:11;12.20;;;8.90;;
62535;SDS011;63050;47.514;18.920;2023-04-06T16:39:13;10.70;;;6.30;;
62535;SDS011;63050;47.514;18.920;2023-04-06T16:44:14;7.90;;;4.80;;
62535;SDS011;63050;47.514;18.920;2023-04-06T16:49:15;8.40;;;7.40;;
62535;SDS011;63050;47.514;18.920;2023-04-06T16:54:18;8.30;;;6.00;;
62535;SDS011;63050;47.514;18.920;2023-04-06T16:59:19;11.00;;;5.90;;
62535;SDS011;63050;47.514;18.920;2023-04-06T17:04:21;10.00;;;7.40;;
62535;SDS011;63050;47.514;18.920;2023-04-06T17:09:22;11.70;;;7.40;;
62535;SDS011;63050;47.514;18.920;2023-04-06T17:14:24;11.90;;;7.10;;
62535;SDS011;63050;47.514;18.920;2023-04-06T17:19:25;11.90;;;8.00;;
62535;SDS011;63050;47.514;18.920;2023-04-06T17:24:26;11.40;;;8.60;;
62535;SDS011;63050;47.514;18.920;2023-04-06T17:29:27;11.20;;;9.80;;
62535;SDS011;63050;47.514;18.920;2023-04-06T17:34:28;10.80;;;8.40;;
62535;SDS011;63050;47.514;18.920;2023-04-06T17:39:29;11.90;;;8.20;;
62535;SDS011;63050;47.514;18.920;2023-04-06T17:44:30;11.80;;;7.10;;
62535;SDS011;63050;47.514;18.920;2023-04-06T17:49:32;11.40;;;7.50;;
62535;SDS011;63050;47.514;18.920;2023-04-06T17:54:34;12.00;;;8.00;;
62535;SDS011;63050;47.514;18.920;2023-04-06T17:59:35;13.00;;;9.40;;
62535;SDS011;63050;47.514;18.920;2023-04-06T18:04:36;12.90;;;8.60;;
62535;SDS011;63050;47.514;18.920;2023-04-06T18:09:37;13.10;;;9.60;;
62535;SDS011;63050;47.514;18.920;2023-04-06T18:14:39;12.20;;;8.90;;
62535;SDS011;63050;47.514;18.920;2023-04-06T18:19:41;14.10;;;9.80;;
62535;SDS011;63050;47.514;18.920;2023-04-06T18:24:42;8.40;;;6.50;;
62535;SDS011;63050;47.514;18.920;2023-04-06T18:29:43;12.20;;;9.20;;
62535;SDS011;63050;47.514;18.920;2023-04-06T18:34:44;15.60;;;11.10;;
62535;SDS011;63050;47.514;18.920;2023-04-06T18:39:45;14.90;;;11.20;;
62535;SDS011;63050;47.514;18.920;2023-04-06T18:44:46;11.40;;;8.30;;
62535;SDS011;63050;47.514;18.920;2023-04-06T18:49:47;16.70;;;10.40;;
62535;SDS011;63050;47.514;18.920;2023-04-06T18:54:49;13.80;;;10.80;;
62535;SDS011;63050;47.514;18.920;2023-04-06T18:59:50;21.00;;;10.30;;
62535;SDS011;63050;47.514;18.920;2023-04-06T19:04:52;18.40;;;11.50;;
62535;SDS011;63050;47.514;18.920;2023-04-06T19:09:52;18.50;;;11.00;;
62535;SDS011;63050;47.514;18.920;2023-04-06T19:14:53;23.20;;;13.80;;
62535;SDS011;63050;47.514;18.920;2023-04-06T19:19:54;19.20;;;12.10;;
62535;SDS011;63050;47.514;18.920;2023-04-06T19:24:57;20.50;;;12.80;;
62535;SDS011;63050;47.514;18.920;2023-04-06T19:29:58;22.10;;;14.00;;
62535;SDS011;63050;47.514;18.920;2023-04-06T19:34:59;18.40;;;12.00;;
62535;SDS011;63050;47.514;18.920;2023-04-06T19:40:02;19.70;;;11.60;;
62535;SDS011;63050;47.514;18.920;2023-04-06T19:45:07;18.00;;;14.00;;
62535;SDS011;63050;47.514;18.920;2023-04-06T19:50:08;21.50;;;13.00;;
62535;SDS011;63050;47.514;18.920;2023-04-06T19:55:10;21.60;;;14.70;;
62535;SDS011;63050;47.514;18.920;2023-04-06T20:00:11;18.90;;;12.10;;
62535;SDS011;63050;47.514;18.920;2023-04-06T20:05:12;20.50;;;13.10;;
62535;SDS011;63050;47.514;18.920;2023-04-06T20:10:14;19.60;;;12.00;;
62535;SDS011;63050;47.514;18.920;2023-04-06T20:15:15;16.30;;;11.50;;
62535;SDS011;63050;47.514;18.920;2023-04-06T20:20:18;18.70;;;12.00;;
62535;SDS011;63050;47.514;18.920;2023-04-06T20:25:19;18.40;;;12.60;;
62535;SDS011;63050;47.514;18.920;2023-04-06T20:30:21;21.10;;;12.70;;
62535;SDS011;63050;47.514;18.920;2023-04-06T20:35:22;17.10;;;11.60;;
62535;SDS011;63050;47.514;18.920;2023-04-06T20:40:23;16.70;;;12.00;;
62535;SDS011;63050;47.514;18.920;2023-04-06T20:45:24;21.10;;;14.20;;
62535;SDS011;63050;47.514;18.920;2023-04-06T20:50:25;17.00;;;11.70;;
62535;SDS011;63050;47.514;18.920;2023-04-06T20:55:25;17.20;;;10.80;;
62535;SDS011;63050;47.514;18.920;2023-04-06T21:00:27;15.80;;;10.60;;
62535;SDS011;63050;47.514;18.920;2023-04-06T21:05:28;17.60;;;11.50;;
62535;SDS011;63050;47.514;18.920;2023-04-06T21:10:29;18.90;;;11.90;;
62535;SDS011;63050;47.514;18.920;2023-04-06T21:15:30;19.00;;;12.80;;
62535;SDS011;63050;47.514;18.920;2023-04-06T21:20:30;17.20;;;12.30;;
62535;SDS011;63050;47.514;18.920;2023-04-06T21:25:31;16.90;;;10.70;;
62535;SDS011;63050;47.514;18.920;2023-04-06T21:30:32;16.40;;;11.70;;
62535;SDS011;63050;47.514;18.920;2023-04-06T21:35:39;16.80;;;11.50;;
62535;SDS011;63050;47.514;18.920;2023-04-06T21:40:41;16.30;;;10.80;;
62535;SDS011;63050;47.514;18.920;2023-04-06T21:45:47;19.10;;;12.10;;
62535;SDS011;63050;47.514;18.920;2023-04-06T21:50:48;13.80;;;9.10;;
62535;SDS011;63050;47.514;18.920;2023-04-06T21:55:49;18.20;;;13.00;;
62535;SDS011;63050;47.514;18.920;2023-04-06T22:00:50;16.30;;;12.10;;
62535;SDS011;63050;47.514;18.920;2023-04-06T22:05:51;14.90;;;11.70;;
62535;SDS011;63050;47.514;18.920;2023-04-06T22:10:52;17.70;;;11.20;;
62535;SDS011;63050;47.514;18.920;2023-04-06T22:15:53;19.10;;;11.60;;
62535;SDS011;63050;47.514;18.920;2023-04-06T22:20:54;15.80;;;11.00;;
62535;SDS011;63050;47.514;18.920;2023-04-06T22:25:55;19.70;;;12.20;;
62535;SDS011;63050;47.514;18.920;2023-04-06T22:30:57;18.70;;;12.40;;
62535;SDS011;63050;47.514;18.920;2023-04-06T22:35:58;17.80;;;10.30;;
62535;SDS011;63050;47.514;18.920;2023-04-06T22:40:59;14.90;;;10.20;;
62535;SDS011;63050;47.514;18.920;2023-04-06T22:46:00;16.30;;;11.00;;
62535;SDS011;63050;47.514;18.920;2023-04-06T22:51:01;16.60;;;10.60;;
62535;SDS011;63050;47.514;18.920;2023-04-06T22:56:02;16.90;;;11.30;;
62535;SDS011;63050;47.514;18.920;2023-04-06T23:01:03;15.80;;;9.30;;
62535;SDS011;63050;47.514;18.920;2023-04-06T23:06:05;17.80;;;11.70;;
62535;SDS011;63050;47.514;18.920;2023-04-06T23:11:05;19.40;;;11.80;;
62535;SDS011;63050;47.514;18.920;2023-04-06T23:16:07;17.70;;;12.50;;
62535;SDS011;63050;47.514;18.920;2023-04-06T23:21:08;18.10;;;11.30;;
62535;SDS011;63050;47.514;18.920;2023-04-06T23:26:09;18.40;;;12.50;;
62535;SDS011;63050;47.514;18.920;2023-04-06T23:31:11;15.70;;;10.10;;
62535;SDS011;63050;47.514;18.920;2023-04-06T23:36:12;18.50;;;13.30;;
62535;SDS011;63050;47.514;18.920;2023-04-06T23:41:13;20.20;;;13.90;;
62535;SDS011;63050;47.514;18.920;2023-04-06T23:46:15;19.50;;;12.90;;
62535;SDS011;63050;47.514;18.920;2023-04-06T23:51:16;19.90;;;12.90;;
62535;SDS011;63050;47.514;18.920;2023-04-06T23:56:17;17.40;;;12.40;;
